Time;durP1;ratioP1;P1;durP2;ratioP2;P2;SDS_P1;SDS_P2;PMS_P1;PMS_P2;Temp;Humidity;BMP_temperature;BMP_pressure;BME280_temperature;BME280_humidity;BME280_pressure;Samples;Min_cycle;Max_cycle;Signal;HPM_P1;HPM_P2
2023/08/17 00:04:29;;;;;;;;;;;;;;;24.64;55.95;95788.53;10402992;28;2553;-66
2023/08/17 00:09:29;;;;;;;;;;;;;;;24.65;55.82;95781.34;10403299;28;2236;-67
2023/08/17 00:14:30;;;;;;;;;;;;;;;24.61;55.72;95778.53;10414967;28;2104;-66
2023/08/17 00:19:30;;;;;;;;;;;;;;;24.63;55.97;95780.84;10406361;28;2073;-66
2023/08/17 00:24:31;;;;;;;;;;;;;;;24.59;55.91;95782.53;10408762;28;1990;-65
2023/08/17 00:29:31;;;;;;;;;;;;;;;24.59;56.07;95779.88;10392278;28;2014;-66
2023/08/17 00:34:32;;;;;;;;;;;;;;;24.57;56.04;95774.91;10395019;28;1955;-66
2023/08/17 00:39:32;;;;;;;;;;;;;;;24.58;55.98;95788.94;10412200;28;1956;-66
2023/08/17 00:44:32;;;;;;;;;;;;;;;24.53;56.05;95791.69;10407195;28;2052;-66
2023/08/17 00:49:32;;;;;;;;;;;;;;;24.50;56.22;95792.28;10405939;28;2101;-66
2023/08/17 00:54:33;;;;;;;;;;;;;;;24.52;56.33;95793.56;10396109;28;1976;-66
2023/08/17 00:59:33;;;;;;;;;;;;;;;24.50;56.26;95781.69;10393239;28;2287;-66
2023/08/17 01:04:34;;;;;;;;;;;;;;;24.52;56.23;95769.72;10393090;28;1948;-67
2023/08/17 01:09:35;;;;;;;;;;;;;;;24.51;56.12;95778.75;10405448;28;2120;-67
2023/08/17 01:14:52;;;;;;;;;;;;;;;24.47;56.11;95782.28;10397502;28;1976;-67
2023/08/17 01:19:53;;;;;;;;;;;;;;;24.45;56.11;95784.44;10405869;28;1942;-67
2023/08/17 01:24:59;;;;;;;;;;;;;;;24.45;56.26;95790.53;10407959;28;2078;-67
2023/08/17 01:29:59;;;;;;;;;;;;;;;24.46;56.28;95799.28;10407886;28;2044;-67
2023/08/17 01:35:23;;;;;;;;;;;;;;;24.43;56.16;95792.69;10404400;28;2047;-66
2023/08/17 01:40:23;;;;;;;;;;;;;;;24.42;56.33;95779.75;10398817;28;2098;-67
2023/08/17 01:45:24;;;;;;;;;;;;;;;24.42;56.37;95790.34;10401609;28;4514;-68
2023/08/17 01:50:24;;;;;;;;;;;;;;;24.40;56.29;95776.59;10407916;28;1954;-68
2023/08/17 01:55:26;;;;;;;;;;;;;;;24.32;56.55;95770.13;10395111;28;2242;-68
2023/08/17 02:00:27;;;;;;;;;;;;;;;24.30;56.54;95763.59;10397185;28;2043;-68
2023/08/17 02:05:29;;;;;;;;;;;;;;;24.31;56.57;95757.97;10398253;28;1971;-68
2023/08/17 02:10:29;;;;;;;;;;;;;;;24.28;56.46;95758.56;10407595;28;1942;-69
2023/08/17 02:15:29;;;;;;;;;;;;;;;24.23;56.49;95761.31;10402455;28;1970;-69
2023/08/17 02:20:29;;;;;;;;;;;;;;;24.12;56.71;95757.31;10400528;28;2133;-73
2023/08/17 02:25:35;;;;;;;;;;;;;;;24.05;57.01;95749.00;10397561;28;2217;-71
2023/08/17 02:30:35;;;;;;;;;;;;;;;24.11;56.81;95748.56;10396216;28;2000;-67
2023/08/17 02:35:35;;;;;;;;;;;;;;;24.12;56.97;95744.06;10398129;28;2044;-66
2023/08/17 02:40:36;;;;;;;;;;;;;;;24.09;56.86;95734.84;10408075;28;1981;-67
2023/08/17 02:45:36;;;;;;;;;;;;;;;24.06;56.95;95735.44;10401603;28;2360;-67
2023/08/17 02:50:36;;;;;;;;;;;;;;;24.02;57.14;95742.38;10404955;28;1957;-67
2023/08/17 02:55:37;;;;;;;;;;;;;;;24.04;56.91;95742.09;10404417;28;1987;-67
2023/08/17 03:00:37;;;;;;;;;;;;;;;24.02;56.99;95754.81;10407560;28;2271;-68
2023/08/17 03:05:37;;;;;;;;;;;;;;;24.06;56.93;95761.13;10404880;28;2012;-67
2023/08/17 03:10:37;;;;;;;;;;;;;;;24.07;56.93;95758.19;10407689;28;1886;-67
2023/08/17 03:15:39;;;;;;;;;;;;;;;24.05;56.89;95757.69;10402532;28;2211;-67
2023/08/17 03:20:40;;;;;;;;;;;;;;;24.08;56.75;95753.69;10411388;28;1976;-66
2023/08/17 03:25:40;;;;;;;;;;;;;;;24.10;56.90;95759.47;10413413;28;1993;-67
2023/08/17 03:30:40;;;;;;;;;;;;;;;24.09;56.93;95760.56;10408496;28;1906;-66
2023/08/17 03:35:40;;;;;;;;;;;;;;;24.10;56.71;95768.19;10404540;28;2025;-67
2023/08/17 03:40:41;;;;;;;;;;;;;;;24.11;56.62;95769.75;10416319;28;4571;-67
2023/08/17 03:45:41;;;;;;;;;;;;;;;24.10;56.65;95768.19;10415331;28;2333;-67
2023/08/17 03:50:41;;;;;;;;;;;;;;;24.11;56.74;95764.47;10403813;28;2023;-67
2023/08/17 03:55:48;;;;;;;;;;;;;;;24.11;56.64;95761.03;10406315;28;2026;-67
2023/08/17 04:00:49;;;;;;;;;;;;;;;24.09;56.51;95766.63;10407244;28;2197;-67
2023/08/17 04:05:49;;;;;;;;;;;;;;;24.06;56.55;95761.94;10408527;28;1945;-67
2023/08/17 04:10:49;;;;;;;;;;;;;;;24.03;56.47;95767.78;10413887;28;2020;-67
2023/08/17 04:15:49;;;;;;;;;;;;;;;24.04;56.41;95789.78;10417012;28;1957;-67
2023/08/17 04:20:50;;;;;;;;;;;;;;;24.03;56.20;95778.38;10411298;28;2011;-67
2023/08/17 04:25:50;;;;;;;;;;;;;;;24.05;56.38;95788.72;10395113;28;1947;-67
2023/08/17 04:30:50;;;;;;;;;;;;;;;24.04;56.32;95789.78;10395879;28;1937;-67
2023/08/17 04:35:51;;;;;;;;;;;;;;;24.05;56.23;95796.66;10406387;28;1946;-67
2023/08/17 04:40:51;;;;;;;;;;;;;;;24.03;56.37;95804.88;10409642;28;4684;-67
2023/08/17 04:45:51;;;;;;;;;;;;;;;23.99;56.58;95798.56;10394169;28;2261;-67
2023/08/17 04:50:52;;;;;;;;;;;;;;;24.02;56.54;95803.28;10401481;28;2006;-67
2023/08/17 04:55:52;;;;;;;;;;;;;;;23.96;56.96;95804.47;10399852;28;1997;-67
2023/08/17 05:00:52;;;;;;;;;;;;;;;24.00;56.49;95804.66;10408083;28;1965;-68
2023/08/17 05:05:53;;;;;;;;;;;;;;;23.99;56.65;95801.22;10401731;28;2016;-68
2023/08/17 05:10:53;;;;;;;;;;;;;;;24.01;56.57;95803.56;10401879;28;1943;-67
2023/08/17 05:15:53;;;;;;;;;;;;;;;24.03;56.72;95798.75;10410150;28;1900;-69
2023/08/17 05:20:53;;;;;;;;;;;;;;;23.96;56.89;95790.44;10405004;28;2028;-67
2023/08/17 05:25:54;;;;;;;;;;;;;;;24.01;56.96;95809.66;10403188;28;2076;-67
2023/08/17 05:30:54;;;;;;;;;;;;;;;24.01;56.96;95812.28;10400323;28;1946;-67
2023/08/17 05:35:55;;;;;;;;;;;;;;;23.87;57.46;95802.75;10397639;28;1955;-67
2023/08/17 05:40:56;;;;;;;;;;;;;;;23.93;57.11;95804.25;10399113;28;4459;-69
2023/08/17 05:45:57;;;;;;;;;;;;;;;23.97;57.12;95813.97;10395216;28;1982;-68
2023/08/17 05:50:57;;;;;;;;;;;;;;;24.00;57.08;95808.09;10401640;28;1947;-64
2023/08/17 05:55:57;;;;;;;;;;;;;;;23.89;57.18;95814.63;10412635;28;1943;-68
2023/08/17 06:01:07;;;;;;;;;;;;;;;23.95;57.04;95812.69;10399420;28;2106;-68
2023/08/17 06:06:07;;;;;;;;;;;;;;;23.90;57.17;95816.22;10397731;28;2074;-68
2023/08/17 06:11:08;;;;;;;;;;;;;;;23.88;57.28;95821.03;10392459;28;1910;-67
2023/08/17 06:16:08;;;;;;;;;;;;;;;23.79;57.39;95820.13;10391464;28;2214;-67
2023/08/17 06:21:08;;;;;;;;;;;;;;;23.88;57.21;95817.59;10398692;28;2041;-66
2023/08/17 06:26:08;;;;;;;;;;;;;;;23.81;57.69;95822.47;10397388;28;2024;-68
2023/08/17 06:31:09;;;;;;;;;;;;;;;23.83;57.46;95815.03;10392094;28;1991;-66
2023/08/17 06:36:13;;;;;;;;;;;;;;;23.90;57.50;95818.09;10392871;28;2181;-65
2023/08/17 06:41:13;;;;;;;;;;;;;;;23.94;57.05;95821.72;10396136;28;4557;-66
2023/08/17 06:46:13;;;;;;;;;;;;;;;23.98;56.94;95817.41;10389947;28;1966;-67
2023/08/17 06:51:13;;;;;;;;;;;;;;;24.01;56.93;95820.22;10397352;28;1965;-66
2023/08/17 06:56:14;;;;;;;;;;;;;;;24.04;57.03;95809.09;10391824;28;2029;-65
2023/08/17 07:01:14;;;;;;;;;;;;;;;24.09;56.78;95819.59;10385690;28;2005;-66
2023/08/17 07:06:14;;;;;;;;;;;;;;;24.11;56.77;95822.72;10384960;28;2005;-66
2023/08/17 07:11:15;;;;;;;;;;;;;;;24.15;56.67;95822.94;10397427;28;2171;-67
2023/08/17 07:16:15;;;;;;;;;;;;;;;24.19;56.64;95829.97;10400044;28;2017;-66
2023/08/17 07:21:15;;;;;;;;;;;;;;;24.24;56.84;95829.91;10393426;28;1986;-66
2023/08/17 07:26:15;;;;;;;;;;;;;;;24.28;56.77;95831.97;10405939;28;1970;-65
2023/08/17 07:31:16;;;;;;;;;;;;;;;24.34;56.63;95833.44;10395406;28;2528;-65
2023/08/17 07:36:16;;;;;;;;;;;;;;;24.32;56.45;95833.72;10400492;28;1900;-65
2023/08/17 07:41:16;;;;;;;;;;;;;;;24.38;56.82;95837.06;10399667;28;4517;-65
2023/08/17 07:46:16;;;;;;;;;;;;;;;24.41;56.69;95837.25;10404322;28;1977;-66
2023/08/17 07:51:17;;;;;;;;;;;;;;;24.43;56.45;95835.09;10397803;28;1966;-67
2023/08/17 07:56:17;;;;;;;;;;;;;;;24.47;56.48;95836.06;10405856;28;2038;-66
2023/08/17 08:01:18;;;;;;;;;;;;;;;24.50;56.53;95832.03;10406141;28;2367;-66
2023/08/17 08:06:20;;;;;;;;;;;;;;;24.52;56.32;95822.72;10407108;28;1809;-67
2023/08/17 08:11:21;;;;;;;;;;;;;;;24.55;56.58;95826.63;10406051;28;1947;-65
2023/08/17 08:16:21;;;;;;;;;;;;;;;24.58;56.54;95820.75;10403895;28;1940;-66
2023/08/17 08:21:22;;;;;;;;;;;;;;;24.58;56.78;95821.53;10400475;28;2052;-66
2023/08/17 08:26:22;;;;;;;;;;;;;;;24.62;56.57;95824.38;10391554;28;2438;-66
2023/08/17 08:31:22;;;;;;;;;;;;;;;24.65;56.74;95821.09;10399846;28;2081;-68
2023/08/17 08:36:22;;;;;;;;;;;;;;;24.66;56.63;95820.03;10403687;28;2136;-67
2023/08/17 08:41:23;;;;;;;;;;;;;;;24.67;56.80;95819.72;10399301;28;4625;-67
2023/08/17 08:46:23;;;;;;;;;;;;;;;24.68;56.81;95817.88;10403460;28;2217;-67
2023/08/17 08:51:25;;;;;;;;;;;;;;;24.69;56.87;95820.22;10401886;28;1896;-67
2023/08/17 08:56:25;;;;;;;;;;;;;;;24.72;56.88;95824.16;10397853;28;1894;-67
2023/08/17 09:01:26;;;;;;;;;;;;;;;24.73;56.92;95817.78;10399049;28;2001;-67
2023/08/17 09:06:27;;;;;;;;;;;;;;;24.74;56.93;95814.06;10376368;28;2058;-67
2023/08/17 09:11:27;;;;;;;;;;;;;;;24.75;56.73;95805.03;10396085;28;2118;-67
2023/08/17 09:16:27;;;;;;;;;;;;;;;24.76;56.61;95802.09;10393696;28;1962;-67
2023/08/17 09:21:32;;;;;;;;;;;;;;;24.77;57.06;95805.53;10398409;28;1913;-67
2023/08/17 09:26:33;;;;;;;;;;;;;;;24.78;56.98;95807.88;10400305;28;2252;-67
2023/08/17 09:31:34;;;;;;;;;;;;;;;24.81;57.00;95795.88;10398912;28;2209;-67
2023/08/17 09:36:37;;;;;;;;;;;;;;;24.81;56.87;95793.25;10407857;28;1932;-67
2023/08/17 09:41:40;;;;;;;;;;;;;;;24.81;57.02;95794.00;10395078;28;4506;-67
2023/08/17 09:46:44;;;;;;;;;;;;;;;24.83;56.74;95788.41;10398292;28;1938;-67
2023/08/17 09:51:44;;;;;;;;;;;;;;;24.85;56.79;95796.84;10397358;28;1903;-67
2023/08/17 09:56:44;;;;;;;;;;;;;;;24.85;56.91;95794.22;10396340;28;2152;-66
2023/08/17 10:01:47;;;;;;;;;;;;;;;24.88;56.96;95794.38;10393128;28;1956;-66
2023/08/17 10:06:48;;;;;;;;;;;;;;;24.88;57.01;95797.03;10392074;28;1996;-64
2023/08/17 10:11:48;;;;;;;;;;;;;;;24.90;56.83;95786.13;10393666;28;1977;-68
2023/08/17 10:17:00;;;;;;;;;;;;;;;24.91;56.81;95793.00;10396368;28;1980;-68
2023/08/17 10:22:06;;;;;;;;;;;;;;;24.96;56.70;95783.06;10395356;28;1978;-68
2023/08/17 10:27:06;;;;;;;;;;;;;;;25.00;56.32;95797.28;10392810;28;2080;-67
2023/08/17 10:32:07;;;;;;;;;;;;;;;25.01;56.27;95788.25;10393206;28;1891;-67
2023/08/17 10:37:07;;;;;;;;;;;;;;;25.05;55.65;95783.13;10396232;28;1918;-69
2023/08/17 10:42:07;;;;;;;;;;;;;;;25.04;55.53;95776.25;10401883;28;4477;-72
2023/08/17 10:47:20;;;;;;;;;;;;;;;25.02;55.94;95773.91;10387943;28;2055;-73
2023/08/17 10:52:27;;;;;;;;;;;;;;;25.02;56.11;95778.41;10395783;28;1973;-73
2023/08/17 10:57:40;;;;;;;;;;;;;;;25.03;56.15;95785.31;10390055;28;2213;-73
2023/08/17 11:02:40;;;;;;;;;;;;;;;25.03;56.20;95778.13;10392497;28;1910;-73
2023/08/17 11:07:40;;;;;;;;;;;;;;;25.04;56.39;95785.00;10395368;28;1978;-73
2023/08/17 11:12:41;;;;;;;;;;;;;;;25.04;56.27;95774.38;10399077;28;2108;-73
2023/08/17 11:17:41;;;;;;;;;;;;;;;25.05;56.27;95772.53;10393131;28;2160;-73
2023/08/17 11:22:42;;;;;;;;;;;;;;;25.08;56.16;95781.75;10403751;28;1994;-73
2023/08/17 11:27:42;;;;;;;;;;;;;;;25.07;56.20;95769.56;10400953;28;2331;-74
2023/08/17 11:32:42;;;;;;;;;;;;;;;25.09;56.08;95767.38;10398654;28;2095;-68
2023/08/17 11:37:43;;;;;;;;;;;;;;;25.09;56.11;95762.09;10408346;28;2027;-66
2023/08/17 11:42:44;;;;;;;;;;;;;;;25.11;56.35;95759.91;10404648;28;4556;-68
2023/08/17 11:47:44;;;;;;;;;;;;;;;25.13;56.57;95760.38;10403657;28;2267;-68
2023/08/17 11:52:44;;;;;;;;;;;;;;;25.14;56.83;95738.09;10407461;28;1888;-70
2023/08/17 11:57:45;;;;;;;;;;;;;;;25.17;56.87;95751.53;10402178;28;1898;-70
2023/08/17 12:02:48;;;;;;;;;;;;;;;25.18;57.00;95737.19;10392334;28;1975;-69
2023/08/17 12:07:49;;;;;;;;;;;;;;;25.21;57.00;95741.88;10406357;28;2059;-70
2023/08/17 12:12:49;;;;;;;;;;;;;;;25.22;57.14;95743.47;10386370;28;2249;-70
2023/08/17 12:17:52;;;;;;;;;;;;;;;25.24;57.09;95743.94;10398203;28;1899;-70
2023/08/17 12:22:52;;;;;;;;;;;;;;;25.24;57.54;95728.03;10404218;28;1914;-70
2023/08/17 12:27:53;;;;;;;;;;;;;;;25.28;57.02;95723.69;10404439;28;2063;-70
2023/08/17 12:32:53;;;;;;;;;;;;;;;25.29;57.04;95719.91;10397741;28;1928;-68
2023/08/17 12:37:53;;;;;;;;;;;;;;;25.30;56.77;95710.88;10394180;28;1953;-67
2023/08/17 12:42:54;;;;;;;;;;;;;;;25.33;57.11;95704.97;10403424;28;1973;-69
2023/08/17 12:47:54;;;;;;;;;;;;;;;25.35;57.51;95702.03;10399080;28;1919;-70
2023/08/17 12:52:54;;;;;;;;;;;;;;;25.35;57.05;95694.81;10402537;28;2291;-69
2023/08/17 12:57:54;;;;;;;;;;;;;;;25.35;56.96;95694.81;10407054;28;1926;-68
2023/08/17 13:02:55;;;;;;;;;;;;;;;25.38;56.96;95690.78;10404579;28;1966;-68
2023/08/17 13:07:55;;;;;;;;;;;;;;;25.39;56.84;95692.38;10395563;28;2284;-71
2023/08/17 13:12:58;;;;;;;;;;;;;;;25.39;57.18;95682.50;10397798;28;1928;-68
2023/08/17 13:17:59;;;;;;;;;;;;;;;25.41;57.04;95688.31;10393285;28;2188;-71
2023/08/17 13:23:00;;;;;;;;;;;;;;;25.42;57.43;95681.94;10391537;28;1910;-71
2023/08/17 13:28:00;;;;;;;;;;;;;;;25.43;57.12;95675.53;10394767;28;1954;-69
2023/08/17 13:33:00;;;;;;;;;;;;;;;25.43;56.77;95672.88;10401706;28;1906;-67
2023/08/17 13:38:03;;;;;;;;;;;;;;;25.44;56.73;95669.16;10397723;28;1963;-66
2023/08/17 13:43:04;;;;;;;;;;;;;;;25.43;56.36;95667.56;10394894;28;4522;-68
2023/08/17 13:48:06;;;;;;;;;;;;;;;25.44;56.81;95661.19;10395249;28;1859;-68
2023/08/17 13:53:06;;;;;;;;;;;;;;;25.44;57.11;95666.50;10394199;28;2042;-70
2023/08/17 13:58:06;;;;;;;;;;;;;;;25.44;56.93;95666.50;10405678;28;2095;-70
2023/08/17 14:03:06;;;;;;;;;;;;;;;25.43;56.94;95666.81;10402211;28;2027;-70
2023/08/17 14:08:07;;;;;;;;;;;;;;;25.43;56.92;95651.66;10404446;28;2317;-70
2023/08/17 14:13:07;;;;;;;;;;;;;;;25.43;56.49;95643.69;10405167;28;2041;-70
2023/08/17 14:18:08;;;;;;;;;;;;;;;25.41;55.95;95637.16;10384614;28;1999;-70
2023/08/17 14:23:08;;;;;;;;;;;;;;;25.40;55.74;95631.03;10390535;28;1977;-70
2023/08/17 14:28:08;;;;;;;;;;;;;;;25.42;55.52;95617.47;10406405;28;1913;-70
2023/08/17 14:33:09;;;;;;;;;;;;;;;25.41;55.16;95615.91;10393469;28;1973;-70
2023/08/17 14:38:12;;;;;;;;;;;;;;;25.41;55.31;95614.03;10395937;28;2013;-70
2023/08/17 14:43:15;;;;;;;;;;;;;;;25.42;55.21;95610.28;10401763;28;4520;-70
2023/08/17 14:48:16;;;;;;;;;;;;;;;25.42;55.01;95598.88;10394275;28;1951;-71
2023/08/17 14:53:16;;;;;;;;;;;;;;;25.42;54.84;95601.53;10402910;28;1974;-73
2023/08/17 14:58:18;;;;;;;;;;;;;;;25.44;54.79;95605.47;10409296;28;1914;-71
2023/08/17 15:03:18;;;;;;;;;;;;;;;25.45;54.19;95609.66;10407627;28;2326;-70
2023/08/17 15:08:19;;;;;;;;;;;;;;;25.45;54.17;95614.97;10406636;28;1939;-70
2023/08/17 15:13:19;;;;;;;;;;;;;;;25.44;54.45;95615.28;10407230;28;1949;-67
2023/08/17 15:18:20;;;;;;;;;;;;;;;25.46;54.39;95634.34;10407520;28;1979;-67
2023/08/17 15:23:20;;;;;;;;;;;;;;;25.46;54.01;95653.69;10409834;28;1961;-67
2023/08/17 15:28:20;;;;;;;;;;;;;;;25.46;54.00;95643.09;10404901;28;2023;-67
2023/08/17 15:33:20;;;;;;;;;;;;;;;25.47;54.09;95649.19;10404533;28;2001;-67
2023/08/17 15:38:21;;;;;;;;;;;;;;;25.46;54.28;95658.22;10411069;28;1828;-68
2023/08/17 15:43:21;;;;;;;;;;;;;;;25.45;54.18;95678.66;10419258;28;4497;-67
2023/08/17 15:48:21;;;;;;;;;;;;;;;25.46;54.35;95671.50;10411448;28;1946;-68
2023/08/17 15:53:22;;;;;;;;;;;;;;;25.46;54.40;95666.97;10406704;28;1855;-68
2023/08/17 15:58:22;;;;;;;;;;;;;;;25.47;54.21;95641.97;10409400;28;2443;-68
2023/08/17 16:03:23;;;;;;;;;;;;;;;25.47;54.35;95639.31;10411273;28;1942;-67
2023/08/17 16:08:23;;;;;;;;;;;;;;;25.48;54.47;95638.25;10395448;28;2066;-66
2023/08/17 16:13:23;;;;;;;;;;;;;;;25.47;54.50;95644.63;10395631;28;1958;-66
2023/08/17 16:18:23;;;;;;;;;;;;;;;25.47;54.63;95652.59;10417371;28;1732;-65
2023/08/17 16:23:24;;;;;;;;;;;;;;;25.48;54.54;95662.13;10409537;28;1970;-65
2023/08/17 16:28:24;;;;;;;;;;;;;;;25.48;54.55;95706.47;10406445;28;1906;-65
2023/08/17 16:33:24;;;;;;;;;;;;;;;25.47;52.94;95744.72;10392240;28;1955;-65
2023/08/17 16:38:25;;;;;;;;;;;;;;;25.28;51.09;95766.13;10402892;28;1954;-65
2023/08/17 16:43:25;;;;;;;;;;;;;;;25.12;50.48;95786.16;10414018;28;4466;-66
2023/08/17 16:48:25;;;;;;;;;;;;;;;25.09;49.95;95810.63;10398906;28;2213;-65
2023/08/17 16:53:26;;;;;;;;;;;;;;;25.11;49.80;95820.91;10402360;28;2230;-68
2023/08/17 16:58:26;;;;;;;;;;;;;;;25.09;49.78;95831.84;10397493;28;1964;-64
2023/08/17 17:03:26;;;;;;;;;;;;;;;25.17;49.69;95847.03;10393576;28;2019;-65
2023/08/17 17:08:26;;;;;;;;;;;;;;;25.11;49.61;95837.63;10400099;28;2083;-66
2023/08/17 17:13:27;;;;;;;;;;;;;;;25.16;50.07;95850.78;10399614;28;1957;-65
2023/08/17 17:18:27;;;;;;;;;;;;;;;25.10;52.00;95854.59;10402591;28;1839;-65
2023/08/17 17:23:27;;;;;;;;;;;;;;;25.14;52.38;95850.31;10398392;28;1957;-66
2023/08/17 17:28:28;;;;;;;;;;;;;;;25.22;52.51;95851.44;10394756;28;1903;-65
2023/08/17 17:33:28;;;;;;;;;;;;;;;25.21;52.60;95852.50;10408329;28;1974;-66
2023/08/17 17:38:34;;;;;;;;;;;;;;;25.12;52.55;95856.97;10500786;27;1785;-67
2023/08/17 17:43:34;;;;;;;;;;;;;;;25.11;52.73;95861.50;10500565;28;4470;-67
2023/08/17 17:48:35;;;;;;;;;;;;;;;25.16;52.83;95864.06;10495293;28;1955;-67
2023/08/17 17:53:35;;;;;;;;;;;;;;;25.16;52.88;95853.44;10503564;28;1951;-67
2023/08/17 17:58:35;;;;;;;;;;;;;;;25.11;52.38;95855.41;10503243;28;1938;-67
2023/08/17 18:03:35;;;;;;;;;;;;;;;25.06;52.47;95861.59;10488163;28;1911;-68
2023/08/17 18:08:36;;;;;;;;;;;;;;;24.93;52.55;95873.03;10521048;27;2003;-67
2023/08/17 18:13:36;;;;;;;;;;;;;;;24.78;52.34;95878.66;10497102;28;2016;-67
2023/08/17 18:18:37;;;;;;;;;;;;;;;24.70;52.77;95888.06;10495464;28;1962;-64
2023/08/17 18:23:37;;;;;;;;;;;;;;;24.76;52.97;95934.63;10500404;28;1958;-65
2023/08/17 18:28:37;;;;;;;;;;;;;;;24.77;53.10;95986.56;10496319;28;1961;-65
2023/08/17 18:33:37;;;;;;;;;;;;;;;24.71;53.25;95989.59;10499941;28;2055;-66
2023/08/17 18:38:38;;;;;;;;;;;;;;;24.65;53.26;95996.03;10497239;28;2026;-64
2023/08/17 18:43:38;;;;;;;;;;;;;;;24.69;53.23;96011.06;10498881;28;4682;-65
2023/08/17 18:48:38;;;;;;;;;;;;;;;24.80;53.36;95999.25;10471938;28;2267;-64
2023/08/17 18:53:38;;;;;;;;;;;;;;;24.88;53.59;95995.13;10476624;28;1977;-64
2023/08/17 18:58:39;;;;;;;;;;;;;;;24.92;53.59;95996.88;10476677;28;1931;-65
2023/08/17 19:03:39;;;;;;;;;;;;;;;24.96;53.53;95975.84;10476584;28;1485;-65
2023/08/17 19:08:40;;;;;;;;;;;;;;;25.00;53.64;95979.50;10472613;28;2078;-66
2023/08/17 19:13:41;;;;;;;;;;;;;;;25.02;53.69;95978.13;10472575;28;1987;-66
2023/08/17 19:18:41;;;;;;;;;;;;;;;24.96;53.89;95983.81;10467714;28;1926;-65
2023/08/17 19:23:41;;;;;;;;;;;;;;;24.68;54.51;95982.22;10468676;28;1950;-64
2023/08/17 19:28:41;;;;;;;;;;;;;;;24.44;54.75;95971.78;10473136;28;1902;-64
2023/08/17 19:33:42;;;;;;;;;;;;;;;24.38;54.76;95964.25;10472951;28;1970;-66
2023/08/17 19:38:42;;;;;;;;;;;;;;;24.27;55.16;95958.31;10480415;28;1928;-70
2023/08/17 19:43:42;;;;;;;;;;;;;;;24.00;55.89;95961.66;10471406;28;4656;-70
2023/08/17 19:48:43;;;;;;;;;;;;;;;23.89;55.94;95968.19;10472983;28;2157;-69
2023/08/17 19:53:44;;;;;;;;;;;;;;;23.81;56.71;95960.91;10469921;28;2030;-71
2023/08/17 19:58:44;;;;;;;;;;;;;;;23.72;56.70;95957.34;10500966;27;1904;-70
2023/08/17 20:03:49;;;;;;;;;;;;;;;23.73;56.90;95964.22;10475840;28;2234;-70
2023/08/17 20:08:50;;;;;;;;;;;;;;;23.59;57.48;95957.28;10476893;28;1964;-70
2023/08/17 20:13:50;;;;;;;;;;;;;;;23.49;57.53;95950.31;10474459;28;1942;-71
2023/08/17 20:18:50;;;;;;;;;;;;;;;23.51;57.59;95942.06;10474482;28;2016;-73
2023/08/17 20:23:51;;;;;;;;;;;;;;;23.47;57.57;95939.22;10480280;28;1864;-72
2023/08/17 20:28:52;;;;;;;;;;;;;;;23.39;57.98;95929.25;10470991;28;2043;-71
2023/08/17 20:33:52;;;;;;;;;;;;;;;23.40;58.05;95930.84;10469536;28;1913;-71
2023/08/17 20:38:52;;;;;;;;;;;;;;;23.40;58.07;95936.13;10455362;28;2216;-71
2023/08/17 20:43:53;;;;;;;;;;;;;;;23.39;58.05;95953.84;10463905;28;4497;-71
2023/08/17 20:48:54;;;;;;;;;;;;;;;23.33;58.15;95962.16;10471741;28;1994;-71
2023/08/17 20:53:54;;;;;;;;;;;;;;;23.42;58.17;95968.38;10468070;28;2052;-71
2023/08/17 20:58:54;;;;;;;;;;;;;;;23.49;57.71;95976.75;10496243;28;1970;-72
2023/08/17 21:03:55;;;;;;;;;;;;;;;23.62;57.56;96001.72;10470367;28;2024;-73
2023/08/17 21:08:55;;;;;;;;;;;;;;;23.62;58.20;96028.94;10468890;28;1900;-71
2023/08/17 21:13:55;;;;;;;;;;;;;;;23.70;58.07;96019.59;10501492;28;2023;-71
2023/08/17 21:18:59;;;;;;;;;;;;;;;23.75;58.02;96008.91;10461079;28;1843;-71
2023/08/17 21:23:59;;;;;;;;;;;;;;;23.77;57.88;95996.97;10470401;28;2104;-72
2023/08/17 21:28:59;;;;;;;;;;;;;;;23.77;57.74;95978.44;10469199;28;2084;-72
2023/08/17 21:33:59;;;;;;;;;;;;;;;23.80;57.79;95969.91;10467541;28;2422;-64
2023/08/17 21:39:00;;;;;;;;;;;;;;;23.83;57.67;95973.84;10498587;28;2029;-63
2023/08/17 21:44:00;;;;;;;;;;;;;;;23.87;57.81;95975.63;10469132;28;4619;-66
2023/08/17 21:49:00;;;;;;;;;;;;;;;23.89;57.70;95970.84;10495298;28;1973;-69
2023/08/17 21:54:02;;;;;;;;;;;;;;;23.91;57.77;95965.25;10472923;28;1924;-69
2023/08/17 21:59:02;;;;;;;;;;;;;;;23.91;57.80;95965.25;10472890;28;1958;-69
2023/08/17 22:04:02;;;;;;;;;;;;;;;23.92;57.86;95956.25;10469744;28;1911;-68
2023/08/17 22:09:02;;;;;;;;;;;;;;;23.86;58.08;95952.09;10471033;28;1876;-68
2023/08/17 22:14:03;;;;;;;;;;;;;;;23.82;58.07;95949.22;10462750;28;1978;-68
2023/08/17 22:19:03;;;;;;;;;;;;;;;23.81;57.96;95949.53;10464219;28;2127;-67
2023/08/17 22:24:04;;;;;;;;;;;;;;;23.73;57.94;95948.34;10464278;28;1910;-67
2023/08/17 22:29:05;;;;;;;;;;;;;;;23.73;57.50;95952.84;10479161;28;2010;-67
2023/08/17 22:34:05;;;;;;;;;;;;;;;23.67;57.58;95967.22;10467099;28;2258;-67
2023/08/17 22:39:05;;;;;;;;;;;;;;;23.62;57.66;95967.31;10466134;28;2173;-67
2023/08/17 22:44:05;;;;;;;;;;;;;;;23.64;57.52;95973.09;10470668;28;4564;-68
2023/08/17 22:49:06;;;;;;;;;;;;;;;23.60;57.47;95959.63;10470488;28;1951;-66
2023/08/17 22:54:08;;;;;;;;;;;;;;;23.60;57.16;95958.84;10474044;28;1999;-66
2023/08/17 22:59:08;;;;;;;;;;;;;;;23.47;57.28;95955.09;10473799;28;1915;-67
2023/08/17 23:04:09;;;;;;;;;;;;;;;23.46;56.94;95948.22;10499869;28;1962;-67
2023/08/17 23:09:09;;;;;;;;;;;;;;;23.40;56.90;95947.50;10500962;27;1990;-68
2023/08/17 23:14:10;;;;;;;;;;;;;;;23.36;56.88;95924.56;10470376;28;1936;-67
2023/08/17 23:19:10;;;;;;;;;;;;;;;23.43;56.68;95922.34;10468656;28;2214;-68
2023/08/17 23:24:10;;;;;;;;;;;;;;;23.35;56.57;95915.03;10470559;28;2032;-67
2023/08/17 23:29:11;;;;;;;;;;;;;;;23.15;56.89;95904.72;10495784;27;2383;-67
2023/08/17 23:34:11;;;;;;;;;;;;;;;22.94;57.17;95904.22;10464210;28;1975;-66
2023/08/17 23:39:11;;;;;;;;;;;;;;;22.84;57.67;95908.84;10468426;28;1982;-67
2023/08/17 23:44:15;;;;;;;;;;;;;;;22.80;57.73;95907.81;10460053;28;4533;-66
2023/08/17 23:49:16;;;;;;;;;;;;;;;22.80;57.45;95910.47;10468377;28;1955;-67
2023/08/17 23:54:16;;;;;;;;;;;;;;;22.77;56.97;95903.91;10474317;28;2050;-66
2023/08/17 23:59:16;;;;;;;;;;;;;;;22.87;57.23;95913.56;10468681;28;1972;-67
